Terminal Aerodrome Forecast
Issued by NWS Atlanta, GA

Home | Current Version | Previous Version | Text Only | Print | Product List | Glossary On
Versions: 1 2 3 4 5 6 7 8 9 10 11 12 13 14 15 16 17 18 19 20
000
FTUS42 KFFC 031337 AAB
TAFMCN
TAF AMD
KMCN 031337Z 0314/0412 30003KT 6SM BR BKN200
     FM031600 30006KT P6SM SCT045 BKN180
     FM040000 00000KT P6SM SCT060 SCT150
     FM041000 00000KT 5SM BR FEW150 SCT250=

USA.gov is the U.S. government's official web portal to all federal, state and local government web resources and services.